Terminal Aerodrome Forecast
Issued by NWS

Home | Current Version | Previous Version | Graphics & Text | Print | Product List | Glossary On
Versions: 1 2 3 4 5 6 7 8 9 10 11 12 13 14 15 16 17
000
FTUS43 KMPX 250500
TAFRNH
TAF
KRNH 250531Z 2506/2606 31010KT P6SM OVC022
      TEMPO 2506/2509 SCT022
     FM250900 30007KT P6SM SCT025
     FM251300 25005KT P6SM FEW050
     FM260000 VRB03KT P6SM SCT040 BKN120=

USA.gov is the U.S. government's official web portal to all federal, state and local government web resources and services.